Time;durP1;ratioP1;P1;durP2;ratioP2;P2;SDS_P1;SDS_P2;PMS_P1;PMS_P2;Temp;Humidity;BMP_temperature;BMP_pressure;BME280_temperature;BME280_humidity;BME280_pressure;Samples;Min_cycle;Max_cycle;Signal;HPM_P1;HPM_P2
2022/10/20 00:01:51;;;;;;;16.30;14.70;;;;;;;;;;5238622;28;20080;-86
2022/10/20 00:04:21;;;;;;;15.07;13.27;;;;;;;;;;5238004;28;20024;-87
2022/10/20 00:06:52;;;;;;;16.83;15.07;;;;;;;;;;5238041;28;20027;-86
2022/10/20 00:09:22;;;;;;;18.13;14.85;;;;;;;;;;5238659;28;20084;-85
2022/10/20 00:11:52;;;;;;;14.85;13.90;;;;;;;;;;5238119;28;20042;-85
2022/10/20 00:14:22;;;;;;;16.75;15.15;;;;;;;;;;5220148;28;20017;-84
2022/10/20 00:16:52;;;;;;;15.90;14.50;;;;;;;;;;5220692;28;20013;-85
2022/10/20 00:19:23;;;;;;;14.82;13.57;;;;;;;;;;5238466;28;20273;-86
2022/10/20 00:21:53;;;;;;;15.57;14.10;;;;;;;;;;5238710;28;20043;-86
2022/10/20 00:24:23;;;;;;;16.63;15.10;;;;;;;;;;5237956;28;20021;-85
2022/10/20 00:26:54;;;;;;;19.75;14.85;;;;;;;;;;5220463;28;20028;-86
2022/10/20 00:29:24;;;;;;;17.02;15.63;;;;;;;;;;5238460;28;20020;-86
2022/10/20 00:31:54;;;;;;;17.90;16.40;;;;;;;;;;5220213;28;20037;-86
2022/10/20 00:34:24;;;;;;;16.60;15.25;;;;;;;;;;5220120;28;20039;-86
2022/10/20 00:36:55;;;;;;;15.98;13.20;;;;;;;;;;5222739;28;20025;-87
2022/10/20 00:39:25;;;;;;;16.10;14.70;;;;;;;;;;5242906;28;20017;-86
2022/10/20 00:41:55;;;;;;;22.05;16.52;;;;;;;;;;5224489;28;20032;-87
2022/10/20 00:44:44;;;;;;;17.45;15.82;;;;;;;;;;5242091;28;20017;-87
2022/10/20 00:47:35;;;;;;;16.90;15.00;;;;;;;;;;5242764;28;20040;-85
2022/10/20 00:50:10;;;;;;;19.38;15.30;;;;;;;;;;5228082;28;20028;-84
2022/10/20 00:52:43;;;;;;;15.30;13.05;;;;;;;;;;5242662;28;20047;-84
2022/10/20 00:55:18;;;;;;;17.15;13.55;;;;;;;;;;5223925;28;20491;-87
2022/10/20 00:57:49;;;;;;;21.65;15.75;;;;;;;;;;5242869;28;20048;-83
2022/10/20 01:00:20;;;;;;;18.55;16.67;;;;;;;;;;5242567;28;20013;-84
2022/10/20 01:02:51;;;;;;;17.98;16.27;;;;;;;;;;5242404;28;20047;-87
2022/10/20 01:05:22;;;;;;;18.27;16.45;;;;;;;;;;5241883;28;20024;-83
2022/10/20 01:07:53;;;;;;;18.15;15.13;;;;;;;;;;5241935;28;20025;-86
2022/10/20 01:10:25;;;;;;;16.50;15.00;;;;;;;;;;5224362;28;20124;-85
2022/10/20 01:13:05;;;;;;;17.10;15.70;;;;;;;;;;5241736;28;20017;-84
2022/10/20 01:15:36;;;;;;;;;;;;;;;;;;5223982;28;20021;-84
2022/10/20 01:18:28;;;;;;;15.97;14.50;;;;;;;;;;5224342;28;19966;-85
2022/10/20 01:21:21;;;;;;;15.20;13.85;;;;;;;;;;5241468;28;20027;-85
2022/10/20 01:23:51;;;;;;;15.25;13.57;;;;;;;;;;5223565;28;20024;-85
2022/10/20 01:26:36;;;;;;;15.05;13.90;;;;;;;;;;5241939;28;20021;-85
2022/10/20 01:29:17;;;;;;;16.83;15.07;;;;;;;;;;5241548;28;20039;-85
2022/10/20 01:31:51;;;;;;;17.38;15.25;;;;;;;;;;5241956;28;20029;-85
2022/10/20 01:34:41;;;;;;;16.10;14.68;;;;;;;;;;5223274;28;20387;-86
2022/10/20 01:37:18;;;;;;;17.40;15.88;;;;;;;;;;5241965;28;20021;-86
2022/10/20 01:39:51;;;;;;;16.73;15.52;;;;;;;;;;5241496;28;20017;-86
2022/10/20 01:42:23;;;;;;;20.30;18.27;;;;;;;;;;5223657;28;20016;-85
2022/10/20 01:44:55;;;;;;;15.88;13.98;;;;;;;;;;5222911;28;20478;-86
2022/10/20 01:47:26;;;;;;;15.32;14.02;;;;;;;;;;5239928;28;20376;-85
2022/10/20 01:49:57;;;;;;;17.45;15.80;;;;;;;;;;5223616;28;20028;-85
2022/10/20 01:52:27;;;;;;;18.92;17.10;;;;;;;;;;5242998;28;20017;-85
2022/10/20 01:54:58;;;;;;;17.73;15.88;;;;;;;;;;5223324;28;20444;-85
2022/10/20 01:57:46;;;;;;;16.25;14.95;;;;;;;;;;5233693;28;20009;-84
2022/10/20 02:00:17;;;;;;;18.23;16.38;;;;;;;;;;5226168;28;20060;-83
2022/10/20 02:03:05;;;;;;;18.23;16.75;;;;;;;;;;5223503;28;20029;-85
2022/10/20 02:05:39;;;;;;;17.20;15.57;;;;;;;;;;5240083;28;20523;-84
2022/10/20 02:08:19;;;;;;;18.08;14.73;;;;;;;;;;5241069;28;20021;-84
2022/10/20 02:10:49;;;;;;;;;;;;;;;;;;5242250;28;20070;-85
2022/10/20 02:13:20;;;;;;;16.92;15.40;;;;;;;;;;5242405;28;19908;-85
2022/10/20 02:15:52;;;;;;;17.65;16.02;;;;;;;;;;5222857;28;20480;-85
2022/10/20 02:18:34;;;;;;;19.45;17.60;;;;;;;;;;5222939;28;20017;-83
2022/10/20 02:21:05;;;;;;;18.90;16.10;;;;;;;;;;5243119;28;20029;-85
2022/10/20 02:23:37;;;;;;;17.80;16.20;;;;;;;;;;5223545;28;20017;-84
2022/10/20 02:26:11;;;;;;;19.63;17.67;;;;;;;;;;5242292;28;20017;-84
2022/10/20 02:28:43;;;;;;;32.70;16.75;;;;;;;;;;5242347;28;20048;-85
2022/10/20 02:31:13;;;;;;;17.20;14.50;;;;;;;;;;5223328;28;20029;-86
2022/10/20 02:33:44;;;;;;;20.77;17.17;;;;;;;;;;5240662;28;20020;-85
2022/10/20 02:36:16;;;;;;;20.48;18.50;;;;;;;;;;5225438;28;20036;-83
2022/10/20 02:38:46;;;;;;;15.05;13.60;;;;;;;;;;5242843;28;20056;-84
2022/10/20 02:41:17;;;;;;;17.73;16.27;;;;;;;;;;5243029;28;20023;-84
2022/10/20 02:43:47;;;;;;;18.73;17.05;;;;;;;;;;5242731;28;20064;-85
2022/10/20 02:46:17;;;;;;;17.38;15.60;;;;;;;;;;5224211;28;20055;-84
2022/10/20 02:48:48;;;;;;;18.30;16.85;;;;;;;;;;5242685;28;20024;-84
2022/10/20 02:51:18;;;;;;;18.95;17.25;;;;;;;;;;5226419;28;20009;-85
2022/10/20 02:53:48;;;;;;;19.10;17.35;;;;;;;;;;5244262;28;20032;-85
2022/10/20 02:56:19;;;;;;;19.55;17.88;;;;;;;;;;5226213;28;20066;-84
2022/10/20 02:58:49;;;;;;;23.17;18.80;;;;;;;;;;5243798;28;20048;-85
2022/10/20 03:01:21;;;;;;;17.75;16.15;;;;;;;;;;5243954;28;20052;-85
2022/10/20 03:03:57;;;;;;;17.27;15.60;;;;;;;;;;5242786;28;20017;-84
2022/10/20 03:06:27;;;;;;;18.35;16.83;;;;;;;;;;5225774;28;20040;-85
2022/10/20 03:08:57;;;;;;;18.95;16.98;;;;;;;;;;5242866;28;20020;-85
2022/10/20 03:11:28;;;;;;;20.27;17.60;;;;;;;;;;5223755;28;20021;-85
2022/10/20 03:13:58;;;;;;;20.33;18.63;;;;;;;;;;5221823;28;20025;-85
2022/10/20 03:16:28;;;;;;;21.45;19.50;;;;;;;;;;5239539;28;20471;-85
2022/10/20 03:18:59;;;;;;;17.77;16.05;;;;;;;;;;5221305;28;20028;-85
2022/10/20 03:21:29;;;;;;;17.13;15.55;;;;;;;;;;5224103;28;20020;-85
2022/10/20 03:24:00;;;;;;;18.90;17.17;;;;;;;;;;5240155;28;20032;-85
2022/10/20 03:26:30;;;;;;;21.48;18.80;;;;;;;;;;5221883;28;20025;-85
2022/10/20 03:29:00;;;;;;;21.13;19.27;;;;;;;;;;5239566;28;20028;-85
2022/10/20 03:31:30;;;;;;;20.15;18.35;;;;;;;;;;5241555;28;20025;-85
2022/10/20 03:34:01;;;;;;;20.95;17.70;;;;;;;;;;5240826;28;20482;-84
2022/10/20 03:36:31;;;;;;;18.30;16.45;;;;;;;;;;5222382;28;20081;-85
2022/10/20 03:39:01;;;;;;;30.70;18.05;;;;;;;;;;5220984;28;20088;-85
2022/10/20 03:41:32;;;;;;;19.05;17.08;;;;;;;;;;5239200;28;20036;-85
2022/10/20 03:44:02;;;;;;;19.63;17.90;;;;;;;;;;5238925;28;20093;-85
2022/10/20 03:46:32;;;;;;;18.67;16.98;;;;;;;;;;5239150;28;20025;-85
2022/10/20 03:49:02;;;;;;;19.00;17.40;;;;;;;;;;5220976;28;20036;-84
2022/10/20 03:51:33;;;;;;;19.95;18.27;;;;;;;;;;5221364;28;20267;-85
2022/10/20 03:54:03;;;;;;;21.33;17.53;;;;;;;;;;5220797;28;20597;-85
2022/10/20 03:56:33;;;;;;;20.90;18.88;;;;;;;;;;5239425;28;20323;-85
2022/10/20 03:59:03;;;;;;;18.85;17.23;;;;;;;;;;5238843;28;20040;-85
2022/10/20 04:01:34;;;;;;;19.35;17.55;;;;;;;;;;5238935;28;20013;-85
2022/10/20 04:04:04;;;;;;;18.50;16.90;;;;;;;;;;5238454;28;20024;-85
2022/10/20 04:06:34;;;;;;;22.58;16.92;;;;;;;;;;5238759;28;20051;-85
2022/10/20 04:09:05;;;;;;;20.92;19.00;;;;;;;;;;5238715;28;20099;-85
2022/10/20 04:11:35;;;;;;;18.95;16.75;;;;;;;;;;5220060;28;20433;-85
2022/10/20 04:14:05;;;;;;;21.77;19.65;;;;;;;;;;5220422;28;20079;-84
2022/10/20 04:16:36;;;;;;;16.83;15.32;;;;;;;;;;5220944;28;20024;-84
2022/10/20 04:19:06;;;;;;;21.13;17.38;;;;;;;;;;5238536;28;20029;-85
2022/10/20 04:21:36;;;;;;;18.98;17.25;;;;;;;;;;5220726;28;20047;-85
2022/10/20 04:24:07;;;;;;;19.70;16.58;;;;;;;;;;5238303;28;20029;-85
2022/10/20 04:26:37;;;;;;;19.83;17.85;;;;;;;;;;5220608;28;20100;-85
2022/10/20 04:29:07;;;;;;;20.13;18.08;;;;;;;;;;5220998;28;20015;-85
2022/10/20 04:31:37;;;;;;;17.90;16.30;;;;;;;;;;5238256;28;20079;-85
2022/10/20 04:34:08;;;;;;;16.98;15.43;;;;;;;;;;5238713;28;20009;-85
2022/10/20 04:36:38;;;;;;;18.27;16.90;;;;;;;;;;5239307;28;20013;-85
2022/10/20 04:39:08;;;;;;;18.90;17.13;;;;;;;;;;5220489;28;20116;-86
2022/10/20 04:41:38;;;;;;;18.38;16.77;;;;;;;;;;5238628;28;20471;-85
2022/10/20 04:44:09;;;;;;;18.52;16.85;;;;;;;;;;5238154;28;20106;-86
2022/10/20 04:46:39;;;;;;;19.30;17.40;;;;;;;;;;5237678;28;20074;-84
2022/10/20 04:49:10;;;;;;;17.58;15.93;;;;;;;;;;5220907;28;20032;-86
2022/10/20 04:51:40;;;;;;;18.70;17.00;;;;;;;;;;5238083;28;20010;-85
2022/10/20 04:54:10;;;;;;;21.42;19.48;;;;;;;;;;5221429;28;20277;-86
2022/10/20 04:56:41;;;;;;;19.65;17.63;;;;;;;;;;5237981;28;20025;-85
2022/10/20 04:59:11;;;;;;;17.95;16.50;;;;;;;;;;5219686;28;20032;-86
2022/10/20 05:01:41;;;;;;;20.15;18.42;;;;;;;;;;5236746;28;20474;-85
2022/10/20 05:04:12;;;;;;;21.08;19.40;;;;;;;;;;5238008;28;20017;-84
2022/10/20 05:06:42;;;;;;;21.92;19.77;;;;;;;;;;5220533;28;20028;-85
2022/10/20 05:09:13;;;;;;;20.65;18.55;;;;;;;;;;5238069;28;20017;-85
2022/10/20 05:11:43;;;;;;;20.13;18.17;;;;;;;;;;5238212;28;20032;-85
2022/10/20 05:14:13;;;;;;;20.90;18.98;;;;;;;;;;5237808;28;20021;-85
2022/10/20 05:16:44;;;;;;;22.38;20.45;;;;;;;;;;5220130;28;20057;-87
2022/10/20 05:19:14;;;;;;;19.42;17.65;;;;;;;;;;5238292;28;20021;-86
2022/10/20 05:21:44;;;;;;;20.75;17.52;;;;;;;;;;5238070;28;20071;-86
2022/10/20 05:24:16;;;;;;;20.15;18.52;;;;;;;;;;5241522;28;20028;-86
2022/10/20 05:26:47;;;;;;;26.38;18.90;;;;;;;;;;5223473;28;20028;-86
2022/10/20 05:29:17;;;;;;;21.58;19.63;;;;;;;;;;5223402;28;20483;-86
2022/10/20 05:31:47;;;;;;;22.08;19.02;;;;;;;;;;5221293;28;20394;-86
2022/10/20 05:34:18;;;;;;;22.02;19.90;;;;;;;;;;5221500;28;20033;-85
2022/10/20 05:36:48;;;;;;;21.55;19.65;;;;;;;;;;5222177;28;20021;-85
2022/10/20 05:39:20;;;;;;;23.77;21.58;;;;;;;;;;5223936;28;20046;-85
2022/10/20 05:41:50;;;;;;;21.67;19.63;;;;;;;;;;5250857;22;20076;-81
2022/10/20 05:44:21;;;;;;;23.35;21.33;;;;;;;;;;5191738;28;20064;-81
2022/10/20 05:46:51;;;;;;;22.05;20.00;;;;;;;;;;5189019;28;20036;-80
2022/10/20 05:49:22;;;;;;;22.30;18.95;;;;;;;;;;5188465;28;20394;-80
2022/10/20 05:51:52;;;;;;;29.80;22.95;;;;;;;;;;5188158;28;20223;-80
2022/10/20 05:54:22;;;;;;;24.57;22.13;;;;;;;;;;5169021;28;20037;-79
2022/10/20 05:56:53;;;;;;;22.10;20.02;;;;;;;;;;5188949;28;20253;-84
2022/10/20 05:59:23;;;;;;;28.92;20.33;;;;;;;;;;5189405;28;20068;-79
2022/10/20 06:01:53;;;;;;;22.77;20.55;;;;;;;;;;5185626;28;20068;-83
2022/10/20 06:04:23;;;;;;;22.55;20.48;;;;;;;;;;5167502;28;20037;-84
2022/10/20 06:06:54;;;;;;;24.38;21.85;;;;;;;;;;5186736;28;20028;-81
2022/10/20 06:09:25;;;;;;;22.65;20.65;;;;;;;;;;5186557;28;20112;-80
2022/10/20 06:11:55;;;;;;;24.52;20.92;;;;;;;;;;5168599;28;20109;-80
2022/10/20 06:14:25;;;;;;;25.88;23.48;;;;;;;;;;5187232;28;20119;-81
2022/10/20 06:16:55;;;;;;;24.42;21.98;;;;;;;;;;5187263;28;20440;-80
2022/10/20 06:19:26;;;;;;;25.42;22.98;;;;;;;;;;5187653;28;20432;-79
2022/10/20 06:21:56;;;;;;;28.40;24.83;;;;;;;;;;5170408;28;20018;-79
2022/10/20 06:24:27;;;;;;;26.65;24.13;;;;;;;;;;5170595;28;20018;-80
2022/10/20 06:26:57;;;;;;;25.73;20.98;;;;;;;;;;5171611;28;20089;-79
2022/10/20 06:29:27;;;;;;;26.70;22.93;;;;;;;;;;5171300;28;20033;-82
2022/10/20 06:31:57;;;;;;;23.50;21.17;;;;;;;;;;5188382;28;20314;-81
2022/10/20 06:34:28;;;;;;;25.10;22.77;;;;;;;;;;5168230;28;20682;-81
2022/10/20 06:36:58;;;;;;;25.60;22.50;;;;;;;;;;5187551;28;20300;-81
2022/10/20 06:39:28;;;;;;;23.93;21.70;;;;;;;;;;5183619;28;20291;-79
2022/10/20 06:41:58;;;;;;;22.45;20.08;;;;;;;;;;5199247;28;20269;-82
2022/10/20 06:44:29;;;;;;;25.90;23.40;;;;;;;;;;5190865;28;20036;-81
2022/10/20 06:46:59;;;;;;;25.33;23.08;;;;;;;;;;5174819;28;20359;-81
2022/10/20 06:49:29;;;;;;;27.08;24.67;;;;;;;;;;5192677;28;20010;-81
2022/10/20 06:51:59;;;;;;;26.10;23.65;;;;;;;;;;5175079;28;20057;-82
2022/10/20 06:54:30;;;;;;;23.60;21.38;;;;;;;;;;5190238;28;20024;-80
2022/10/20 06:57:00;;;;;;;24.03;21.73;;;;;;;;;;5191786;28;20045;-79
2022/10/20 06:59:30;;;;;;;25.10;22.67;;;;;;;;;;5192053;28;20759;-80
2022/10/20 07:02:00;;;;;;;23.45;21.10;;;;;;;;;;5196110;28;20360;-79
2022/10/20 07:04:31;;;;;;;23.20;21.10;;;;;;;;;;5185610;28;20117;-79
2022/10/20 07:07:01;;;;;;;21.50;19.45;;;;;;;;;;5216446;28;20044;-81
2022/10/20 07:09:31;;;;;;;22.75;20.50;;;;;;;;;;5214611;28;20024;-80
2022/10/20 07:12:01;;;;;;;22.50;20.33;;;;;;;;;;5217595;28;20030;-82
2022/10/20 07:14:36;;;;;;;22.30;20.38;;;;;;;;;;5211981;28;20295;-81
2022/10/20 07:17:06;;;;;;;20.15;18.55;;;;;;;;;;5212463;28;20067;-82
2022/10/20 07:19:36;;;;;;;18.67;17.17;;;;;;;;;;5194170;28;20033;-82
2022/10/20 07:22:06;;;;;;;17.57;16.07;;;;;;;;;;5212551;28;20256;-82
2022/10/20 07:24:36;;;;;;;17.87;16.17;;;;;;;;;;5211642;28;20302;-81
2022/10/20 07:27:07;;;;;;;18.27;16.70;;;;;;;;;;5212741;28;20346;-83
2022/10/20 07:29:37;;;;;;;17.27;15.57;;;;;;;;;;5213874;28;20317;-84
2022/10/20 07:32:07;;;;;;;21.88;17.05;;;;;;;;;;5194663;28;20025;-83
2022/10/20 07:34:37;;;;;;;16.33;14.57;;;;;;;;;;5210256;28;20029;-83
2022/10/20 07:37:08;;;;;;;18.13;16.37;;;;;;;;;;5211537;28;20093;-84
2022/10/20 07:39:38;;;;;;;15.68;14.27;;;;;;;;;;5209714;28;20264;-83
2022/10/20 07:42:08;;;;;;;18.83;17.17;;;;;;;;;;5210313;28;20033;-83
2022/10/20 07:44:38;;;;;;;15.68;14.23;;;;;;;;;;5209147;28;20321;-81
2022/10/20 07:47:09;;;;;;;14.40;13.18;;;;;;;;;;5192148;28;20018;-83
2022/10/20 07:49:39;;;;;;;16.13;14.83;;;;;;;;;;5210511;28;20017;-81
2022/10/20 07:52:10;;;;;;;16.30;14.57;;;;;;;;;;5210879;28;20431;-83
2022/10/20 07:54:40;;;;;;;16.17;14.88;;;;;;;;;;5197114;28;20353;-84
2022/10/20 07:57:10;;;;;;;15.63;14.52;;;;;;;;;;5197760;28;20325;-85
2022/10/20 07:59:40;;;;;;;16.38;14.98;;;;;;;;;;5194798;28;20089;-85
2022/10/20 08:02:12;;;;;;;17.70;13.73;;;;;;;;;;5194669;28;20041;-85
2022/10/20 08:04:43;;;;;;;14.63;13.25;;;;;;;;;;5211817;28;20331;-83
2022/10/20 08:07:13;;;;;;;17.05;15.32;;;;;;;;;;5193591;28;20071;-84
2022/10/20 08:09:44;;;;;;;14.15;13.13;;;;;;;;;;5192483;28;20037;-83
2022/10/20 08:12:15;;;;;;;15.48;13.95;;;;;;;;;;5210097;28;20029;-82
2022/10/20 08:14:45;;;;;;;14.57;13.13;;;;;;;;;;5191294;28;20022;-83
2022/10/20 08:17:16;;;;;;;16.25;14.40;;;;;;;;;;5201855;28;20013;-83
2022/10/20 08:19:46;;;;;;;14.18;12.73;;;;;;;;;;5207693;28;20025;-83
2022/10/20 08:22:18;;;;;;;13.70;12.27;;;;;;;;;;5209158;28;20041;-83
2022/10/20 08:24:48;;;;;;;12.75;11.65;;;;;;;;;;5208118;28;20272;-83
2022/10/20 08:27:19;;;;;;;12.25;11.25;;;;;;;;;;5209156;28;20103;-80
2022/10/20 08:29:49;;;;;;;12.43;11.37;;;;;;;;;;5209311;28;20026;-80
2022/10/20 08:32:19;;;;;;;12.53;11.67;;;;;;;;;;5209743;28;20264;-80
2022/10/20 08:34:49;;;;;;;13.82;12.48;;;;;;;;;;5208930;28;20264;-80
2022/10/20 08:37:20;;;;;;;14.52;13.25;;;;;;;;;;5209310;28;20017;-80
2022/10/20 08:39:50;;;;;;;10.33;9.57;;;;;;;;;;5191348;28;20091;-80
2022/10/20 08:42:20;;;;;;;10.60;9.77;;;;;;;;;;5192575;28;20327;-82
2022/10/20 08:44:52;;;;;;;12.05;11.00;;;;;;;;;;5208404;28;20406;-83
2022/10/20 08:47:34;;;;;;;13.90;12.55;;;;;;;;;;5211102;28;20040;-82
2022/10/20 08:50:06;;;;;;;12.15;11.25;;;;;;;;;;5210618;28;20483;-83
2022/10/20 08:52:38;;;;;;;11.90;10.52;;;;;;;;;;5210343;28;20022;-80
2022/10/20 08:55:32;;;;;;;10.45;9.60;;;;;;;;;;5190389;28;20025;-82
2022/10/20 08:58:02;;;;;;;12.23;11.38;;;;;;;;;;5199966;28;20037;-79
2022/10/20 09:00:35;;;;;;;11.47;10.50;;;;;;;;;;5217121;28;20029;-79
2022/10/20 09:03:12;;;;;;;10.68;9.73;;;;;;;;;;5212983;28;20263;-80
2022/10/20 09:05:44;;;;;;;13.45;10.90;;;;;;;;;;5214161;28;20037;-80
2022/10/20 09:08:15;;;;;;;12.05;10.35;;;;;;;;;;5216209;28;20079;-79
2022/10/20 09:10:47;;;;;;;13.27;12.27;;;;;;;;;;5216605;28;20017;-79
2022/10/20 09:13:24;;;;;;;11.38;10.45;;;;;;;;;;5198075;28;20026;-78
2022/10/20 09:16:14;;;;;;;13.45;12.20;;;;;;;;;;5216538;28;20021;-77
2022/10/20 09:18:55;;;;;;;17.58;13.15;;;;;;;;;;5198467;28;20097;-79
2022/10/20 09:21:25;;;;;;;11.50;10.38;;;;;;;;;;5215520;28;20017;-78
2022/10/20 09:23:59;;;;;;;12.00;10.90;;;;;;;;;;5215567;28;20017;-78
2022/10/20 09:26:29;;;;;;;11.75;10.75;;;;;;;;;;5212048;28;20466;-80
2022/10/20 09:29:19;;;;;;;12.23;11.13;;;;;;;;;;5212256;28;20028;-80
2022/10/20 09:31:52;;;;;;;12.05;11.13;;;;;;;;;;5212694;28;20044;-78
2022/10/20 09:34:24;;;;;;;13.38;10.77;;;;;;;;;;5211458;28;20375;-80
2022/10/20 09:36:57;;;;;;;13.05;11.55;;;;;;;;;;5211568;28;20117;-79
2022/10/20 09:39:30;;;;;;;15.15;13.85;;;;;;;;;;5212756;28;20026;-80
2022/10/20 09:42:02;;;;;;;20.83;11.38;;;;;;;;;;5210164;28;20432;-80
2022/10/20 09:44:36;;;;;;;11.38;10.45;;;;;;;;;;5205121;28;20101;-80
2022/10/20 09:47:11;;;;;;;15.40;10.68;;;;;;;;;;5191505;28;20108;-82
2022/10/20 09:49:42;;;;;;;13.15;11.63;;;;;;;;;;5208969;28;20107;-80
2022/10/20 09:52:24;;;;;;;12.55;11.40;;;;;;;;;;5208577;28;20013;-80
2022/10/20 09:54:58;;;;;;;10.95;9.88;;;;;;;;;;5206800;28;20022;-80
2022/10/20 09:57:29;;;;;;;14.23;13.05;;;;;;;;;;5209366;28;20087;-80
2022/10/20 10:00:00;;;;;;;13.43;12.20;;;;;;;;;;5208209;28;20075;-79
2022/10/20 10:02:31;;;;;;;17.88;14.82;;;;;;;;;;5208656;28;20456;-80
2022/10/20 10:05:18;;;;;;;15.02;13.73;;;;;;;;;;5206294;28;20420;-80
2022/10/20 10:07:58;;;;;;;15.07;13.57;;;;;;;;;;5189721;28;20035;-79
2022/10/20 10:10:28;;;;;;;;;;;;;;;;;;5207764;28;20029;-80
2022/10/20 10:12:59;;;;;;;15.52;14.20;;;;;;;;;;5190211;28;19908;-79
2022/10/20 10:15:36;;;;;;;13.43;12.30;;;;;;;;;;5188436;28;20033;-79
2022/10/20 10:18:14;;;;;;;18.92;13.90;;;;;;;;;;5207390;28;20018;-80
2022/10/20 10:20:45;;;;;;;13.93;12.43;;;;;;;;;;5189946;28;20104;-79
2022/10/20 10:23:19;;;;;;;18.73;12.75;;;;;;;;;;5209063;28;20215;-79
2022/10/20 10:25:50;;;;;;;14.98;13.82;;;;;;;;;;5191133;28;20022;-80
2022/10/20 10:28:27;;;;;;;12.30;11.07;;;;;;;;;;5209979;28;20020;-80
2022/10/20 10:31:08;;;;;;;16.05;14.65;;;;;;;;;;5192189;28;20021;-80
2022/10/20 10:33:39;;;;;;;15.52;13.23;;;;;;;;;;5208192;28;20013;-80
2022/10/20 10:36:13;;;;;;;18.53;15.27;;;;;;;;;;5210357;28;20029;-82
2022/10/20 10:38:43;;;;;;;15.65;14.07;;;;;;;;;;5210822;28;20256;-82
2022/10/20 10:41:17;;;;;;;15.23;13.80;;;;;;;;;;5210908;28;20034;-82
2022/10/20 10:44:11;;;;;;;14.70;13.48;;;;;;;;;;5208268;28;20131;-80
2022/10/20 10:46:42;;;;;;;17.65;14.85;;;;;;;;;;5147448;28;20112;-79
2022/10/20 10:49:15;;;;;;;17.92;15.23;;;;;;;;;;5211641;28;20040;-81
2022/10/20 10:52:17;;;;;;;15.18;12.98;;;;;;;;;;5211411;28;20021;-81
2022/10/20 10:55:07;;;;;;;12.50;11.48;;;;;;;;;;5138161;28;20052;-80
2022/10/20 10:57:55;;;;;;;15.02;13.85;;;;;;;;;;5209702;28;20018;-84
2022/10/20 11:00:46;;;;;;;14.73;12.60;;;;;;;;;;5193979;28;20025;-80
2022/10/20 11:03:27;;;;;;;13.93;12.73;;;;;;;;;;5160246;28;20043;-82
2022/10/20 11:06:11;;;;;;;13.18;11.45;;;;;;;;;;5193992;28;20363;-83
2022/10/20 11:09:00;;;;;;;15.73;11.73;;;;;;;;;;5210793;28;20017;-83
2022/10/20 11:11:30;;;;;;;12.45;11.50;;;;;;;;;;5211113;28;20021;-84
2022/10/20 11:14:16;;;;;;;12.85;11.80;;;;;;;;;;5192754;28;20088;-80
2022/10/20 11:16:46;;;;;;;13.52;11.88;;;;;;;;;;5210321;28;20048;-81
2022/10/20 11:19:25;;;;;;;15.00;13.03;;;;;;;;;;5193434;28;20017;-81
2022/10/20 11:21:56;;;;;;;11.75;10.88;;;;;;;;;;5216252;28;20275;-81
2022/10/20 11:24:26;;;;;;;14.40;12.77;;;;;;;;;;5214946;28;20440;-84
2022/10/20 11:27:16;;;;;;;13.53;12.07;;;;;;;;;;5209858;28;20029;-82
2022/10/20 11:29:52;;;;;;;13.98;12.02;;;;;;;;;;5209541;28;20773;-82
2022/10/20 11:32:28;;;;;;;13.18;11.85;;;;;;;;;;5209712;28;20403;-84
2022/10/20 11:35:17;;;;;;;13.73;12.45;;;;;;;;;;5209165;28;20383;-83
2022/10/20 11:38:07;;;;;;;12.55;11.18;;;;;;;;;;5192159;28;20022;-82
2022/10/20 11:40:38;;;;;;;11.00;10.20;;;;;;;;;;5156761;22;20790;-86
2022/10/20 11:43:12;;;;;;;12.68;11.52;;;;;;;;;;5197039;28;20482;-86
2022/10/20 11:46:01;;;;;;;11.95;10.98;;;;;;;;;;5198563;28;20463;-84
2022/10/20 11:48:38;;;;;;;12.23;10.40;;;;;;;;;;5216461;28;20386;-86
2022/10/20 11:51:19;;;;;;;14.70;11.52;;;;;;;;;;5215596;28;20092;-86
2022/10/20 11:54:14;;;;;;;17.55;11.80;;;;;;;;;;5214068;28;20064;-87
2022/10/20 11:56:51;;;;;;;12.20;11.10;;;;;;;;;;5211929;28;20438;-86
2022/10/20 11:59:24;;;;;;;11.23;10.23;;;;;;;;;;5196767;28;20022;-85
2022/10/20 12:02:09;;;;;;;11.63;10.68;;;;;;;;;;5195878;28;20018;-84
2022/10/20 12:04:40;;;;;;;14.18;10.65;;;;;;;;;;5214617;28;20530;-86
2022/10/20 12:07:29;;;;;;;13.50;9.00;;;;;;;;;;5214915;28;20032;-85
2022/10/20 12:10:09;;;;;;;11.90;10.10;;;;;;;;;;5215644;28;20032;-84
2022/10/20 12:12:42;;;;;;;11.35;10.45;;;;;;;;;;5197668;28;20029;-84
2022/10/20 12:15:22;;;;;;;10.80;10.00;;;;;;;;;;5214869;28;20025;-85
2022/10/20 12:17:54;;;;;;;12.13;9.98;;;;;;;;;;5216314;28;20021;-84
2022/10/20 12:20:24;;;;;;;10.70;9.60;;;;;;;;;;5216353;28;20033;-84
2022/10/20 12:22:57;;;;;;;11.63;9.40;;;;;;;;;;5198720;28;20101;-85
2022/10/20 12:25:36;;;;;;;14.50;9.57;;;;;;;;;;5215014;28;20282;-84
2022/10/20 12:28:19;;;;;;;10.27;9.37;;;;;;;;;;5198478;28;20025;-85
2022/10/20 12:30:52;;;;;;;13.50;9.43;;;;;;;;;;5215301;28;20044;-84
2022/10/20 12:33:41;;;;;;;11.57;9.00;;;;;;;;;;5200033;28;20079;-86
2022/10/20 12:36:12;;;;;;;10.15;9.23;;;;;;;;;;5199319;28;20032;-84
2022/10/20 12:38:44;;;;;;;8.30;7.63;;;;;;;;;;5219591;28;20084;-85
2022/10/20 12:41:26;;;;;;;8.40;7.75;;;;;;;;;;5198522;28;20072;-84
2022/10/20 12:44:01;;;;;;;9.52;8.82;;;;;;;;;;5214963;28;20025;-84
2022/10/20 12:46:32;;;;;;;7.75;7.22;;;;;;;;;;5215631;28;20022;-85
2022/10/20 12:49:05;;;;;;;11.35;10.13;;;;;;;;;;5215697;28;20031;-84
2022/10/20 12:51:35;;;;;;;15.82;9.85;;;;;;;;;;5216227;28;20436;-84
2022/10/20 12:54:18;;;;;;;8.38;7.68;;;;;;;;;;5215821;28;20028;-85
2022/10/20 12:56:49;;;;;;;8.65;7.97;;;;;;;;;;5200078;28;20017;-85
2022/10/20 12:59:29;;;;;;;10.48;7.97;;;;;;;;;;5198444;28;20171;-84
2022/10/20 13:02:08;;;;;;;7.68;6.55;;;;;;;;;;5216086;28;20060;-84
2022/10/20 13:04:56;;;;;;;10.90;9.77;;;;;;;;;;5214877;28;20025;-84
2022/10/20 13:07:48;;;;;;;11.88;8.35;;;;;;;;;;5215900;28;20032;-85
2022/10/20 13:10:30;;;;;;;9.20;8.40;;;;;;;;;;5197794;28;20277;-84
2022/10/20 13:13:01;;;;;;;10.75;9.68;;;;;;;;;;5215513;28;20023;-84
2022/10/20 13:15:31;;;;;;;10.23;7.17;;;;;;;;;;5197436;28;20566;-85
2022/10/20 13:18:10;;;;;;;9.23;8.13;;;;;;;;;;5215928;28;20276;-85
2022/10/20 13:20:49;;;;;;;11.57;9.65;;;;;;;;;;5198165;28;20257;-85
2022/10/20 13:23:22;;;;;;;6.18;5.72;;;;;;;;;;5216372;28;20047;-85
2022/10/20 13:25:57;;;;;;;10.60;7.00;;;;;;;;;;5216443;28;20033;-85
2022/10/20 13:28:27;;;;;;;8.65;7.93;;;;;;;;;;5201848;28;20024;-85
2022/10/20 13:31:13;;;;;;;6.03;5.57;;;;;;;;;;5205802;28;20085;-85
2022/10/20 13:34:02;;;;;;;9.63;6.20;;;;;;;;;;5223220;28;20048;-84
2022/10/20 13:36:45;;;;;;;5.88;5.35;;;;;;;;;;5207127;28;20068;-86
2022/10/20 13:39:26;;;;;;;10.45;6.93;;;;;;;;;;5205970;28;20037;-86
2022/10/20 13:42:23;;;;;;;8.30;5.97;;;;;;;;;;5193947;28;20483;-87
2022/10/20 13:44:57;;;;;;;9.93;8.00;;;;;;;;;;5192031;28;20037;-86
2022/10/20 13:47:27;;;;;;;7.78;7.07;;;;;;;;;;5193063;28;20453;-86
2022/10/20 13:50:04;;;;;;;6.90;6.30;;;;;;;;;;5193404;28;20041;-86
2022/10/20 13:52:38;;;;;;;7.10;6.38;;;;;;;;;;5211803;28;20045;-86
2022/10/20 13:55:14;;;;;;;5.97;5.47;;;;;;;;;;5192796;28;20013;-86
2022/10/20 13:58:14;;;;;;;8.13;6.53;;;;;;;;;;5192973;28;20336;-86
2022/10/20 14:00:54;;;;;;;5.03;4.60;;;;;;;;;;5189648;28;20056;-84
2022/10/20 14:03:24;;;;;;;;;;;;;;;;;;5193229;28;20035;-85
2022/10/20 14:05:54;;;;;;;10.60;5.57;;;;;;;;;;5190799;28;19913;-85
2022/10/20 14:08:25;;;;;;;5.40;5.07;;;;;;;;;;5210209;28;20303;-86
2022/10/20 14:11:00;;;;;;;5.30;4.82;;;;;;;;;;5192185;28;20045;-85
2022/10/20 14:13:34;;;;;;;13.48;5.10;;;;;;;;;;5209846;28;20009;-86
2022/10/20 14:16:05;;;;;;;8.85;6.55;;;;;;;;;;5193043;28;20475;-85
2022/10/20 14:18:38;;;;;;;10.63;3.83;;;;;;;;;;5193132;28;20022;-85
2022/10/20 14:21:16;;;;;;;6.50;5.45;;;;;;;;;;5209806;28;20075;-86
2022/10/20 14:23:48;;;;;;;4.35;4.07;;;;;;;;;;5208653;28;20096;-85
2022/10/20 14:26:20;;;;;;;4.32;4.03;;;;;;;;;;5212207;28;20064;-86
2022/10/20 14:28:51;;;;;;;3.63;3.42;;;;;;;;;;5198971;28;20076;-85
2022/10/20 14:31:22;;;;;;;4.13;3.85;;;;;;;;;;5209849;28;20013;-86
2022/10/20 14:33:53;;;;;;;7.25;5.05;;;;;;;;;;5209928;28;20096;-85
2022/10/20 14:36:24;;;;;;;5.43;4.13;;;;;;;;;;5213759;28;20063;-86
2022/10/20 14:38:57;;;;;;;5.68;5.13;;;;;;;;;;5212642;28;20877;-86
2022/10/20 14:41:29;;;;;;;4.28;3.97;;;;;;;;;;5196174;28;188352;-85
2022/10/20 14:44:00;;;;;;;5.70;3.20;;;;;;;;;;5204831;28;20025;-85
2022/10/20 14:46:30;;;;;;;6.43;5.97;;;;;;;;;;5214337;28;20049;-85
2022/10/20 14:49:01;;;;;;;8.07;4.00;;;;;;;;;;5196573;28;20052;-86
2022/10/20 14:51:34;;;;;;;8.02;4.47;;;;;;;;;;5211911;28;20256;-85
2022/10/20 14:54:12;;;;;;;6.57;2.92;;;;;;;;;;5191801;28;20071;-86
2022/10/20 14:56:44;;;;;;;10.20;4.05;;;;;;;;;;5212854;28;20017;-85
2022/10/20 14:59:18;;;;;;;4.88;4.47;;;;;;;;;;5194102;28;20422;-86
2022/10/20 15:01:59;;;;;;;4.78;4.43;;;;;;;;;;5192779;28;20029;-86